sensor_id;sensor_type;location;lat;lon;timestamp;P1;durP1;ratioP1;P2;durP2;ratioP2
6135;SDS011;24008;42.664;23.372;2023-07-28T00:01:55;9.47;;;7.73;;
6135;SDS011;24008;42.664;23.372;2023-07-28T00:04:22;10.37;;;8.37;;
6135;SDS011;24008;42.664;23.372;2023-07-28T00:06:49;8.63;;;7.83;;
6135;SDS011;24008;42.664;23.372;2023-07-28T00:09:16;9.23;;;8.40;;
6135;SDS011;24008;42.664;23.372;2023-07-28T00:11:42;9.17;;;8.37;;
6135;SDS011;24008;42.664;23.372;2023-07-28T00:14:09;9.23;;;8.23;;
6135;SDS011;24008;42.664;23.372;2023-07-28T00:16:38;8.60;;;7.80;;
6135;SDS011;24008;42.664;23.372;2023-07-28T00:19:04;7.97;;;7.23;;
6135;SDS011;24008;42.664;23.372;2023-07-28T00:21:31;8.10;;;7.40;;
6135;SDS011;24008;42.664;23.372;2023-07-28T00:23:58;8.40;;;7.70;;
6135;SDS011;24008;42.664;23.372;2023-07-28T00:26:25;8.63;;;7.83;;
6135;SDS011;24008;42.664;23.372;2023-07-28T00:28:51;9.23;;;8.43;;
6135;SDS011;24008;42.664;23.372;2023-07-28T00:31:18;9.33;;;8.43;;
6135;SDS011;24008;42.664;23.372;2023-07-28T00:33:46;7.40;;;6.73;;
6135;SDS011;24008;42.664;23.372;2023-07-28T00:36:13;8.23;;;7.50;;
6135;SDS011;24008;42.664;23.372;2023-07-28T00:38:40;8.23;;;7.43;;
6135;SDS011;24008;42.664;23.372;2023-07-28T00:41:07;7.17;;;6.47;;
6135;SDS011;24008;42.664;23.372;2023-07-28T00:43:33;7.33;;;6.73;;
6135;SDS011;24008;42.664;23.372;2023-07-28T00:46:00;7.80;;;6.87;;
6135;SDS011;24008;42.664;23.372;2023-07-28T00:48:27;7.90;;;7.20;;
6135;SDS011;24008;42.664;23.372;2023-07-28T00:50:55;8.67;;;7.87;;
6135;SDS011;24008;42.664;23.372;2023-07-28T00:53:22;8.70;;;7.87;;
6135;SDS011;24008;42.664;23.372;2023-07-28T00:55:50;8.10;;;7.40;;
6135;SDS011;24008;42.664;23.372;2023-07-28T00:58:17;7.17;;;6.13;;
6135;SDS011;24008;42.664;23.372;2023-07-28T01:00:44;6.67;;;6.00;;
6135;SDS011;24008;42.664;23.372;2023-07-28T01:03:12;5.93;;;5.47;;
6135;SDS011;24008;42.664;23.372;2023-07-28T01:05:41;6.63;;;6.07;;
6135;SDS011;24008;42.664;23.372;2023-07-28T01:08:15;6.73;;;6.13;;
6135;SDS011;24008;42.664;23.372;2023-07-28T01:10:46;6.43;;;5.90;;
6135;SDS011;24008;42.664;23.372;2023-07-28T01:13:13;6.03;;;5.53;;
6135;SDS011;24008;42.664;23.372;2023-07-28T01:15:40;6.47;;;5.80;;
6135;SDS011;24008;42.664;23.372;2023-07-28T01:18:07;6.37;;;5.87;;
6135;SDS011;24008;42.664;23.372;2023-07-28T01:20:34;6.00;;;5.43;;
6135;SDS011;24008;42.664;23.372;2023-07-28T01:23:14;6.03;;;5.47;;
6135;SDS011;24008;42.664;23.372;2023-07-28T01:25:55;5.53;;;5.03;;
6135;SDS011;24008;42.664;23.372;2023-07-28T01:28:31;6.00;;;5.40;;
6135;SDS011;24008;42.664;23.372;2023-07-28T01:30:59;6.93;;;6.13;;
6135;SDS011;24008;42.664;23.372;2023-07-28T01:33:27;7.03;;;5.80;;
6135;SDS011;24008;42.664;23.372;2023-07-28T01:35:54;6.67;;;6.07;;
6135;SDS011;24008;42.664;23.372;2023-07-28T01:38:21;6.67;;;6.17;;
6135;SDS011;24008;42.664;23.372;2023-07-28T01:40:47;6.47;;;5.80;;
6135;SDS011;24008;42.664;23.372;2023-07-28T01:43:14;6.90;;;6.30;;
6135;SDS011;24008;42.664;23.372;2023-07-28T01:45:43;6.00;;;5.50;;
6135;SDS011;24008;42.664;23.372;2023-07-28T01:48:09;7.70;;;6.20;;
6135;SDS011;24008;42.664;23.372;2023-07-28T01:50:36;8.03;;;6.83;;
6135;SDS011;24008;42.664;23.372;2023-07-28T01:53:03;6.83;;;6.23;;
6135;SDS011;24008;42.664;23.372;2023-07-28T01:55:30;6.80;;;6.20;;
6135;SDS011;24008;42.664;23.372;2023-07-28T01:57:58;7.60;;;6.80;;
6135;SDS011;24008;42.664;23.372;2023-07-28T02:00:26;7.33;;;6.63;;
6135;SDS011;24008;42.664;23.372;2023-07-28T02:02:54;16.63;;;6.70;;
6135;SDS011;24008;42.664;23.372;2023-07-28T02:05:23;9.40;;;7.00;;
6135;SDS011;24008;42.664;23.372;2023-07-28T02:07:50;8.73;;;7.07;;
6135;SDS011;24008;42.664;23.372;2023-07-28T02:10:16;6.93;;;6.40;;
6135;SDS011;24008;42.664;23.372;2023-07-28T02:12:43;7.57;;;6.60;;
6135;SDS011;24008;42.664;23.372;2023-07-28T02:15:11;7.07;;;6.30;;
6135;SDS011;24008;42.664;23.372;2023-07-28T02:17:38;7.27;;;6.67;;
6135;SDS011;24008;42.664;23.372;2023-07-28T02:20:07;8.03;;;6.37;;
6135;SDS011;24008;42.664;23.372;2023-07-28T02:22:37;7.87;;;6.93;;
6135;SDS011;24008;42.664;23.372;2023-07-28T02:25:05;7.80;;;6.30;;
6135;SDS011;24008;42.664;23.372;2023-07-28T02:27:32;7.37;;;6.77;;
6135;SDS011;24008;42.664;23.372;2023-07-28T02:29:59;7.70;;;6.90;;
6135;SDS011;24008;42.664;23.372;2023-07-28T02:32:26;8.37;;;6.53;;
6135;SDS011;24008;42.664;23.372;2023-07-28T02:34:53;7.20;;;6.50;;
6135;SDS011;24008;42.664;23.372;2023-07-28T02:37:21;7.20;;;6.60;;
6135;SDS011;24008;42.664;23.372;2023-07-28T02:39:48;8.90;;;6.47;;
6135;SDS011;24008;42.664;23.372;2023-07-28T02:42:15;6.97;;;6.33;;
6135;SDS011;24008;42.664;23.372;2023-07-28T02:44:42;7.40;;;6.73;;
6135;SDS011;24008;42.664;23.372;2023-07-28T02:47:09;6.93;;;6.00;;
6135;SDS011;24008;42.664;23.372;2023-07-28T02:49:36;7.07;;;6.47;;
6135;SDS011;24008;42.664;23.372;2023-07-28T02:52:02;7.70;;;6.63;;
6135;SDS011;24008;42.664;23.372;2023-07-28T02:54:31;7.03;;;6.33;;
6135;SDS011;24008;42.664;23.372;2023-07-28T02:56:58;6.27;;;5.67;;
6135;SDS011;24008;42.664;23.372;2023-07-28T02:59:24;6.40;;;5.87;;
6135;SDS011;24008;42.664;23.372;2023-07-28T03:01:51;6.97;;;6.37;;
6135;SDS011;24008;42.664;23.372;2023-07-28T03:04:18;6.73;;;5.80;;
6135;SDS011;24008;42.664;23.372;2023-07-28T03:06:46;6.50;;;5.83;;
6135;SDS011;24008;42.664;23.372;2023-07-28T03:09:13;6.90;;;6.30;;
6135;SDS011;24008;42.664;23.372;2023-07-28T03:11:42;6.60;;;6.00;;
6135;SDS011;24008;42.664;23.372;2023-07-28T03:14:09;7.27;;;6.57;;
6135;SDS011;24008;42.664;23.372;2023-07-28T03:16:38;5.97;;;5.47;;
6135;SDS011;24008;42.664;23.372;2023-07-28T03:19:05;7.83;;;6.20;;
6135;SDS011;24008;42.664;23.372;2023-07-28T03:21:32;6.53;;;5.93;;
6135;SDS011;24008;42.664;23.372;2023-07-28T03:23:59;9.33;;;7.50;;
6135;SDS011;24008;42.664;23.372;2023-07-28T03:26:26;11.33;;;9.03;;
6135;SDS011;24008;42.664;23.372;2023-07-28T03:28:54;11.67;;;9.57;;
6135;SDS011;24008;42.664;23.372;2023-07-28T03:31:20;6.27;;;5.70;;
6135;SDS011;24008;42.664;23.372;2023-07-28T03:33:47;7.67;;;5.83;;
6135;SDS011;24008;42.664;23.372;2023-07-28T03:36:14;6.90;;;6.20;;
6135;SDS011;24008;42.664;23.372;2023-07-28T03:38:41;6.63;;;6.03;;
6135;SDS011;24008;42.664;23.372;2023-07-28T03:41:08;8.67;;;6.43;;
6135;SDS011;24008;42.664;23.372;2023-07-28T03:43:34;7.73;;;6.93;;
6135;SDS011;24008;42.664;23.372;2023-07-28T03:46:02;9.67;;;8.50;;
6135;SDS011;24008;42.664;23.372;2023-07-28T03:48:29;9.63;;;8.60;;
6135;SDS011;24008;42.664;23.372;2023-07-28T03:50:56;11.23;;;9.03;;
6135;SDS011;24008;42.664;23.372;2023-07-28T03:53:23;9.53;;;8.40;;
6135;SDS011;24008;42.664;23.372;2023-07-28T03:55:49;14.40;;;11.83;;
6135;SDS011;24008;42.664;23.372;2023-07-28T03:58:16;10.27;;;8.00;;
6135;SDS011;24008;42.664;23.372;2023-07-28T04:00:43;9.67;;;8.67;;
6135;SDS011;24008;42.664;23.372;2023-07-28T04:03:11;9.67;;;8.37;;
6135;SDS011;24008;42.664;23.372;2023-07-28T04:05:38;12.70;;;8.63;;
6135;SDS011;24008;42.664;23.372;2023-07-28T04:08:05;10.07;;;8.20;;
6135;SDS011;24008;42.664;23.372;2023-07-28T04:10:32;8.60;;;7.80;;
6135;SDS011;24008;42.664;23.372;2023-07-28T04:12:59;9.77;;;8.00;;
6135;SDS011;24008;42.664;23.372;2023-07-28T04:15:25;9.73;;;7.90;;
6135;SDS011;24008;42.664;23.372;2023-07-28T04:17:52;10.63;;;7.67;;
6135;SDS011;24008;42.664;23.372;2023-07-28T04:20:20;13.07;;;11.67;;
6135;SDS011;24008;42.664;23.372;2023-07-28T04:22:47;27.50;;;20.17;;
6135;SDS011;24008;42.664;23.372;2023-07-28T04:25:14;25.60;;;19.13;;
6135;SDS011;24008;42.664;23.372;2023-07-28T04:27:41;18.60;;;15.33;;
6135;SDS011;24008;42.664;23.372;2023-07-28T04:30:08;20.17;;;15.87;;
6135;SDS011;24008;42.664;23.372;2023-07-28T04:32:35;16.03;;;14.03;;
6135;SDS011;24008;42.664;23.372;2023-07-28T04:35:01;14.90;;;11.27;;
6135;SDS011;24008;42.664;23.372;2023-07-28T04:37:31;13.77;;;10.27;;
6135;SDS011;24008;42.664;23.372;2023-07-28T04:39:58;16.47;;;12.10;;
6135;SDS011;24008;42.664;23.372;2023-07-28T04:42:25;12.83;;;11.10;;
6135;SDS011;24008;42.664;23.372;2023-07-28T04:44:52;12.43;;;10.13;;
6135;SDS011;24008;42.664;23.372;2023-07-28T04:47:18;12.23;;;9.90;;
6135;SDS011;24008;42.664;23.372;2023-07-28T04:49:45;11.73;;;9.73;;
6135;SDS011;24008;42.664;23.372;2023-07-28T04:52:12;9.90;;;8.50;;
6135;SDS011;24008;42.664;23.372;2023-07-28T04:54:40;13.77;;;10.00;;
6135;SDS011;24008;42.664;23.372;2023-07-28T04:57:07;9.87;;;8.50;;
6135;SDS011;24008;42.664;23.372;2023-07-28T04:59:34;11.13;;;8.32;;
6135;SDS011;24008;42.664;23.372;2023-07-28T05:02:01;9.02;;;8.13;;
6135;SDS011;24008;42.664;23.372;2023-07-28T05:04:27;12.77;;;7.40;;
6135;SDS011;24008;42.664;23.372;2023-07-28T05:06:54;9.32;;;7.10;;
6135;SDS011;24008;42.664;23.372;2023-07-28T05:09:21;9.25;;;8.00;;
6135;SDS011;24008;42.664;23.372;2023-07-28T05:11:49;9.07;;;7.95;;
6135;SDS011;24008;42.664;23.372;2023-07-28T05:14:16;11.18;;;8.07;;
6135;SDS011;24008;42.664;23.372;2023-07-28T05:16:42;8.65;;;7.47;;
6135;SDS011;24008;42.664;23.372;2023-07-28T05:19:09;10.23;;;7.70;;
6135;SDS011;24008;42.664;23.372;2023-07-28T05:21:36;11.93;;;8.60;;
6135;SDS011;24008;42.664;23.372;2023-07-28T05:24:03;12.73;;;8.43;;
6135;SDS011;24008;42.664;23.372;2023-07-28T05:26:30;10.52;;;7.95;;
6135;SDS011;24008;42.664;23.372;2023-07-28T05:28:58;9.75;;;8.13;;
6135;SDS011;24008;42.664;23.372;2023-07-28T05:31:25;11.43;;;8.65;;
6135;SDS011;24008;42.664;23.372;2023-07-28T05:33:51;8.95;;;7.47;;
6135;SDS011;24008;42.664;23.372;2023-07-28T05:36:18;12.32;;;8.30;;
6135;SDS011;24008;42.664;23.372;2023-07-28T05:38:45;9.98;;;7.43;;
6135;SDS011;24008;42.664;23.372;2023-07-28T05:41:12;11.25;;;7.75;;
6135;SDS011;24008;42.664;23.372;2023-07-28T05:43:39;10.05;;;7.82;;
6135;SDS011;24008;42.664;23.372;2023-07-28T05:46:07;13.63;;;7.70;;
6135;SDS011;24008;42.664;23.372;2023-07-28T05:48:34;9.32;;;8.23;;
6135;SDS011;24008;42.664;23.372;2023-07-28T05:51:00;12.43;;;7.30;;
6135;SDS011;24008;42.664;23.372;2023-07-28T05:53:27;7.97;;;7.15;;
6135;SDS011;24008;42.664;23.372;2023-07-28T05:55:54;14.93;;;7.20;;
6135;SDS011;24008;42.664;23.372;2023-07-28T05:58:21;8.43;;;7.25;;
6135;SDS011;24008;42.664;23.372;2023-07-28T06:00:48;12.40;;;6.97;;
6135;SDS011;24008;42.664;23.372;2023-07-28T06:03:16;7.97;;;6.57;;
6135;SDS011;24008;42.664;23.372;2023-07-28T06:05:42;10.20;;;6.63;;
6135;SDS011;24008;42.664;23.372;2023-07-28T06:08:09;9.00;;;6.53;;
6135;SDS011;24008;42.664;23.372;2023-07-28T06:10:36;8.05;;;6.53;;
6135;SDS011;24008;42.664;23.372;2023-07-28T06:13:03;10.57;;;6.95;;
6135;SDS011;24008;42.664;23.372;2023-07-28T06:15:30;15.07;;;6.93;;
6135;SDS011;24008;42.664;23.372;2023-07-28T06:18:00;8.52;;;6.53;;
6135;SDS011;24008;42.664;23.372;2023-07-28T06:20:28;11.95;;;7.35;;
6135;SDS011;24008;42.664;23.372;2023-07-28T06:22:56;11.18;;;7.75;;
6135;SDS011;24008;42.664;23.372;2023-07-28T06:25:22;10.50;;;8.18;;
6135;SDS011;24008;42.664;23.372;2023-07-28T06:27:49;12.10;;;7.43;;
6135;SDS011;24008;42.664;23.372;2023-07-28T06:30:16;19.25;;;6.97;;
6135;SDS011;24008;42.664;23.372;2023-07-28T06:32:43;9.23;;;6.60;;
6135;SDS011;24008;42.664;23.372;2023-07-28T06:35:09;10.98;;;5.90;;
6135;SDS011;24008;42.664;23.372;2023-07-28T06:37:38;11.75;;;6.25;;
6135;SDS011;24008;42.664;23.372;2023-07-28T06:40:05;12.75;;;6.63;;
6135;SDS011;24008;42.664;23.372;2023-07-28T06:42:34;7.82;;;6.20;;
6135;SDS011;24008;42.664;23.372;2023-07-28T06:45:02;8.40;;;5.53;;
6135;SDS011;24008;42.664;23.372;2023-07-28T06:47:29;8.68;;;5.70;;
6135;SDS011;24008;42.664;23.372;2023-07-28T06:49:56;7.45;;;5.63;;
6135;SDS011;24008;42.664;23.372;2023-07-28T06:52:23;10.48;;;6.25;;
6135;SDS011;24008;42.664;23.372;2023-07-28T06:54:51;11.70;;;5.60;;
6135;SDS011;24008;42.664;23.372;2023-07-28T06:57:19;9.52;;;5.78;;
6135;SDS011;24008;42.664;23.372;2023-07-28T06:59:46;6.47;;;5.75;;
6135;SDS011;24008;42.664;23.372;2023-07-28T07:02:12;9.70;;;5.65;;
6135;SDS011;24008;42.664;23.372;2023-07-28T07:04:41;8.27;;;5.38;;
6135;SDS011;24008;42.664;23.372;2023-07-28T07:07:08;7.57;;;5.05;;
6135;SDS011;24008;42.664;23.372;2023-07-28T07:09:34;8.30;;;5.45;;
6135;SDS011;24008;42.664;23.372;2023-07-28T07:12:03;10.75;;;5.35;;
6135;SDS011;24008;42.664;23.372;2023-07-28T07:14:30;7.60;;;5.22;;
6135;SDS011;24008;42.664;23.372;2023-07-28T07:16:57;9.45;;;5.90;;
6135;SDS011;24008;42.664;23.372;2023-07-28T07:19:24;6.35;;;5.70;;
6135;SDS011;24008;42.664;23.372;2023-07-28T07:21:51;6.38;;;5.40;;
6135;SDS011;24008;42.664;23.372;2023-07-28T07:24:17;8.48;;;5.95;;
6135;SDS011;24008;42.664;23.372;2023-07-28T07:26:44;10.90;;;5.50;;
6135;SDS011;24008;42.664;23.372;2023-07-28T07:29:12;7.88;;;5.20;;
6135;SDS011;24008;42.664;23.372;2023-07-28T07:31:39;7.13;;;5.95;;
6135;SDS011;24008;42.664;23.372;2023-07-28T07:34:06;5.90;;;4.93;;
6135;SDS011;24008;42.664;23.372;2023-07-28T07:36:33;6.35;;;4.93;;
6135;SDS011;24008;42.664;23.372;2023-07-28T07:38:59;11.20;;;5.60;;
6135;SDS011;24008;42.664;23.372;2023-07-28T07:41:26;10.63;;;5.13;;
6135;SDS011;24008;42.664;23.372;2023-07-28T07:43:54;11.82;;;4.85;;
6135;SDS011;24008;42.664;23.372;2023-07-28T07:46:22;7.45;;;4.45;;
6135;SDS011;24008;42.664;23.372;2023-07-28T07:48:50;7.32;;;4.57;;
6135;SDS011;24008;42.664;23.372;2023-07-28T07:51:16;7.45;;;4.72;;
6135;SDS011;24008;42.664;23.372;2023-07-28T07:53:43;7.47;;;4.45;;
6135;SDS011;24008;42.664;23.372;2023-07-28T07:56:10;4.78;;;4.28;;
6135;SDS011;24008;42.664;23.372;2023-07-28T07:58:37;6.30;;;4.35;;
6135;SDS011;24008;42.664;23.372;2023-07-28T08:01:04;7.43;;;4.35;;
6135;SDS011;24008;42.664;23.372;2023-07-28T08:03:32;5.25;;;4.53;;
6135;SDS011;24008;42.664;23.372;2023-07-28T08:06:01;6.78;;;3.85;;
6135;SDS011;24008;42.664;23.372;2023-07-28T08:08:28;5.88;;;3.90;;
6135;SDS011;24008;42.664;23.372;2023-07-28T08:10:55;7.88;;;4.35;;
6135;SDS011;24008;42.664;23.372;2023-07-28T08:13:22;6.50;;;4.30;;
6135;SDS011;24008;42.664;23.372;2023-07-28T08:15:49;7.60;;;4.20;;
6135;SDS011;24008;42.664;23.372;2023-07-28T08:18:15;8.32;;;4.50;;
6135;SDS011;24008;42.664;23.372;2023-07-28T08:20:43;4.85;;;4.35;;
6135;SDS011;24008;42.664;23.372;2023-07-28T08:23:10;6.80;;;3.90;;
6135;SDS011;24008;42.664;23.372;2023-07-28T08:25:37;4.50;;;3.72;;
6135;SDS011;24008;42.664;23.372;2023-07-28T08:28:04;5.45;;;4.07;;
6135;SDS011;24008;42.664;23.372;2023-07-28T08:30:31;6.20;;;3.92;;
6135;SDS011;24008;42.664;23.372;2023-07-28T08:32:58;11.07;;;4.10;;
6135;SDS011;24008;42.664;23.372;2023-07-28T08:35:24;6.45;;;3.15;;
6135;SDS011;24008;42.664;23.372;2023-07-28T08:37:53;5.43;;;3.95;;
6135;SDS011;24008;42.664;23.372;2023-07-28T08:40:19;5.85;;;3.60;;
6135;SDS011;24008;42.664;23.372;2023-07-28T08:42:46;4.90;;;4.18;;
6135;SDS011;24008;42.664;23.372;2023-07-28T08:45:14;4.47;;;3.78;;
6135;SDS011;24008;42.664;23.372;2023-07-28T08:47:41;4.07;;;3.47;;
6135;SDS011;24008;42.664;23.372;2023-07-28T08:50:09;5.15;;;3.63;;
6135;SDS011;24008;42.664;23.372;2023-07-28T08:52:36;4.70;;;3.33;;
6135;SDS011;24008;42.664;23.372;2023-07-28T08:55:05;4.88;;;3.80;;
6135;SDS011;24008;42.664;23.372;2023-07-28T08:57:32;3.92;;;3.53;;
6135;SDS011;24008;42.664;23.372;2023-07-28T09:00:17;5.75;;;3.40;;
6135;SDS011;24008;42.664;23.372;2023-07-28T09:02:45;5.75;;;3.88;;
6135;SDS011;24008;42.664;23.372;2023-07-28T09:05:18;6.35;;;3.60;;
6135;SDS011;24008;42.664;23.372;2023-07-28T09:07:46;8.93;;;4.00;;
6135;SDS011;24008;42.664;23.372;2023-07-28T09:10:14;4.10;;;3.50;;
6135;SDS011;24008;42.664;23.372;2023-07-28T09:12:44;5.40;;;4.05;;
6135;SDS011;24008;42.664;23.372;2023-07-28T09:15:12;5.40;;;3.60;;
6135;SDS011;24008;42.664;23.372;2023-07-28T09:17:41;4.78;;;4.30;;
6135;SDS011;24008;42.664;23.372;2023-07-28T09:20:09;6.43;;;4.10;;
6135;SDS011;24008;42.664;23.372;2023-07-28T09:22:41;4.85;;;4.03;;
6135;SDS011;24008;42.664;23.372;2023-07-28T09:25:12;6.30;;;3.70;;
6135;SDS011;24008;42.664;23.372;2023-07-28T09:27:45;7.85;;;3.88;;
6135;SDS011;24008;42.664;23.372;2023-07-28T09:30:16;6.80;;;3.80;;
6135;SDS011;24008;42.664;23.372;2023-07-28T09:32:46;4.57;;;4.13;;
6135;SDS011;24008;42.664;23.372;2023-07-28T09:35:13;7.05;;;4.60;;
6135;SDS011;24008;42.664;23.372;2023-07-28T09:37:41;5.25;;;4.75;;
6135;SDS011;24008;42.664;23.372;2023-07-28T09:40:10;4.30;;;3.90;;
6135;SDS011;24008;42.664;23.372;2023-07-28T09:42:38;3.90;;;3.60;;
6135;SDS011;24008;42.664;23.372;2023-07-28T09:45:07;4.57;;;3.80;;
6135;SDS011;24008;42.664;23.372;2023-07-28T09:47:35;5.07;;;4.30;;
6135;SDS011;24008;42.664;23.372;2023-07-28T09:50:05;4.45;;;3.88;;
6135;SDS011;24008;42.664;23.372;2023-07-28T09:52:34;7.28;;;3.80;;
6135;SDS011;24008;42.664;23.372;2023-07-28T09:55:04;5.45;;;3.80;;
6135;SDS011;24008;42.664;23.372;2023-07-28T09:57:35;4.93;;;3.70;;
6135;SDS011;24008;42.664;23.372;2023-07-28T10:00:07;7.50;;;3.70;;
6135;SDS011;24008;42.664;23.372;2023-07-28T10:02:36;4.72;;;3.60;;
6135;SDS011;24008;42.664;23.372;2023-07-28T10:05:05;8.48;;;3.75;;
6135;SDS011;24008;42.664;23.372;2023-07-28T10:07:33;7.95;;;4.00;;
6135;SDS011;24008;42.664;23.372;2023-07-28T10:10:01;5.40;;;3.42;;
6135;SDS011;24008;42.664;23.372;2023-07-28T10:12:33;6.82;;;4.22;;
6135;SDS011;24008;42.664;23.372;2023-07-28T10:15:11;7.47;;;4.30;;
6135;SDS011;24008;42.664;23.372;2023-07-28T10:17:43;8.35;;;4.50;;
6135;SDS011;24008;42.664;23.372;2023-07-28T10:20:30;5.38;;;3.85;;
6135;SDS011;24008;42.664;23.372;2023-07-28T10:23:07;7.93;;;3.92;;
6135;SDS011;24008;42.664;23.372;2023-07-28T10:25:39;5.30;;;3.72;;
6135;SDS011;24008;42.664;23.372;2023-07-28T10:28:07;4.82;;;3.40;;
6135;SDS011;24008;42.664;23.372;2023-07-28T10:30:53;5.60;;;4.00;;
6135;SDS011;24008;42.664;23.372;2023-07-28T10:33:28;5.88;;;3.42;;
6135;SDS011;24008;42.664;23.372;2023-07-28T10:35:57;5.20;;;3.58;;
6135;SDS011;24008;42.664;23.372;2023-07-28T10:38:31;4.55;;;3.90;;
6135;SDS011;24008;42.664;23.372;2023-07-28T10:41:09;4.57;;;3.60;;
6135;SDS011;24008;42.664;23.372;2023-07-28T10:43:38;5.95;;;3.42;;
6135;SDS011;24008;42.664;23.372;2023-07-28T10:46:07;5.72;;;3.75;;
6135;SDS011;24008;42.664;23.372;2023-07-28T10:48:35;4.68;;;4.00;;
6135;SDS011;24008;42.664;23.372;2023-07-28T10:51:04;7.18;;;4.05;;
6135;SDS011;24008;42.664;23.372;2023-07-28T10:53:31;5.82;;;3.38;;
6135;SDS011;24008;42.664;23.372;2023-07-28T10:56:00;4.88;;;4.03;;
6135;SDS011;24008;42.664;23.372;2023-07-28T10:58:28;4.10;;;3.70;;
6135;SDS011;24008;42.664;23.372;2023-07-28T11:00:55;6.95;;;3.88;;
6135;SDS011;24008;42.664;23.372;2023-07-28T11:03:23;5.82;;;3.65;;
6135;SDS011;24008;42.664;23.372;2023-07-28T11:05:50;5.28;;;4.00;;
6135;SDS011;24008;42.664;23.372;2023-07-28T11:08:17;8.25;;;4.10;;
6135;SDS011;24008;42.664;23.372;2023-07-28T11:10:44;6.82;;;3.72;;
6135;SDS011;24008;42.664;23.372;2023-07-28T11:13:11;6.32;;;4.00;;
6135;SDS011;24008;42.664;23.372;2023-07-28T11:15:38;5.85;;;3.58;;
6135;SDS011;24008;42.664;23.372;2023-07-28T11:18:04;4.85;;;3.85;;
6135;SDS011;24008;42.664;23.372;2023-07-28T11:20:33;5.53;;;3.58;;
6135;SDS011;24008;42.664;23.372;2023-07-28T11:23:00;7.90;;;4.30;;
6135;SDS011;24008;42.664;23.372;2023-07-28T11:25:29;4.63;;;3.83;;
6135;SDS011;24008;42.664;23.372;2023-07-28T11:27:56;8.63;;;4.15;;
6135;SDS011;24008;42.664;23.372;2023-07-28T11:30:23;6.57;;;4.40;;
6135;SDS011;24008;42.664;23.372;2023-07-28T11:32:50;5.47;;;4.53;;
6135;SDS011;24008;42.664;23.372;2023-07-28T11:35:19;6.45;;;4.28;;
6135;SDS011;24008;42.664;23.372;2023-07-28T11:37:49;7.25;;;4.20;;
6135;SDS011;24008;42.664;23.372;2023-07-28T11:40:17;11.45;;;4.85;;
6135;SDS011;24008;42.664;23.372;2023-07-28T11:42:47;5.47;;;4.18;;
6135;SDS011;24008;42.664;23.372;2023-07-28T11:45:16;6.15;;;4.00;;
6135;SDS011;24008;42.664;23.372;2023-07-28T11:47:55;9.57;;;4.28;;
6135;SDS011;24008;42.664;23.372;2023-07-28T11:50:23;7.05;;;4.25;;
6135;SDS011;24008;42.664;23.372;2023-07-28T11:52:51;5.35;;;3.67;;
6135;SDS011;24008;42.664;23.372;2023-07-28T11:55:18;7.05;;;3.88;;
6135;SDS011;24008;42.664;23.372;2023-07-28T11:57:46;8.00;;;3.47;;
6135;SDS011;24008;42.664;23.372;2023-07-28T12:00:13;6.47;;;3.67;;
6135;SDS011;24008;42.664;23.372;2023-07-28T12:02:42;3.65;;;3.30;;
6135;SDS011;24008;42.664;23.372;2023-07-28T12:05:11;3.83;;;3.42;;
6135;SDS011;24008;42.664;23.372;2023-07-28T12:07:39;5.28;;;4.80;;
6135;SDS011;24008;42.664;23.372;2023-07-28T12:10:08;5.93;;;3.38;;
6135;SDS011;24008;42.664;23.372;2023-07-28T12:12:41;3.47;;;3.17;;
6135;SDS011;24008;42.664;23.372;2023-07-28T12:15:20;4.85;;;3.30;;
6135;SDS011;24008;42.664;23.372;2023-07-28T12:18:07;6.13;;;3.42;;
6135;SDS011;24008;42.664;23.372;2023-07-28T12:20:36;7.78;;;4.40;;
6135;SDS011;24008;42.664;23.372;2023-07-28T12:23:04;4.93;;;3.92;;
6135;SDS011;24008;42.664;23.372;2023-07-28T12:25:33;10.57;;;3.72;;
6135;SDS011;24008;42.664;23.372;2023-07-28T12:28:01;6.05;;;4.20;;
6135;SDS011;24008;42.664;23.372;2023-07-28T12:30:28;6.72;;;4.15;;
6135;SDS011;24008;42.664;23.372;2023-07-28T12:32:55;5.13;;;3.90;;
6135;SDS011;24008;42.664;23.372;2023-07-28T12:35:22;6.15;;;4.18;;
6135;SDS011;24008;42.664;23.372;2023-07-28T12:37:49;5.47;;;4.22;;
6135;SDS011;24008;42.664;23.372;2023-07-28T12:40:17;4.22;;;3.60;;
6135;SDS011;24008;42.664;23.372;2023-07-28T12:42:46;5.35;;;3.22;;
6135;SDS011;24008;42.664;23.372;2023-07-28T12:45:13;6.10;;;5.50;;
6135;SDS011;24008;42.664;23.372;2023-07-28T12:47:41;7.55;;;3.40;;
6135;SDS011;24008;42.664;23.372;2023-07-28T12:50:08;9.38;;;3.60;;
6135;SDS011;24008;42.664;23.372;2023-07-28T12:52:36;5.80;;;3.47;;
6135;SDS011;24008;42.664;23.372;2023-07-28T12:55:03;4.28;;;3.30;;
6135;SDS011;24008;42.664;23.372;2023-07-28T12:57:30;3.80;;;3.35;;
6135;SDS011;24008;42.664;23.372;2023-07-28T13:00:00;4.82;;;3.47;;
6135;SDS011;24008;42.664;23.372;2023-07-28T13:02:33;3.60;;;3.22;;
6135;SDS011;24008;42.664;23.372;2023-07-28T13:04:59;4.60;;;3.65;;
6135;SDS011;24008;42.664;23.372;2023-07-28T13:07:26;3.53;;;3.22;;
6135;SDS011;24008;42.664;23.372;2023-07-28T13:09:55;3.33;;;3.03;;
6135;SDS011;24008;42.664;23.372;2023-07-28T13:12:21;4.20;;;3.80;;
6135;SDS011;24008;42.664;23.372;2023-07-28T13:14:48;4.68;;;3.50;;
6135;SDS011;24008;42.664;23.372;2023-07-28T13:17:16;4.80;;;3.53;;
6135;SDS011;24008;42.664;23.372;2023-07-28T13:19:43;3.75;;;3.30;;
6135;SDS011;24008;42.664;23.372;2023-07-28T13:22:10;5.00;;;3.60;;
6135;SDS011;24008;42.664;23.372;2023-07-28T13:24:36;3.63;;;3.28;;
6135;SDS011;24008;42.664;23.372;2023-07-28T13:27:03;4.30;;;3.58;;
6135;SDS011;24008;42.664;23.372;2023-07-28T13:29:31;3.42;;;3.10;;
6135;SDS011;24008;42.664;23.372;2023-07-28T13:31:58;3.72;;;3.42;;
6135;SDS011;24008;42.664;23.372;2023-07-28T13:34:27;4.07;;;3.42;;
6135;SDS011;24008;42.664;23.372;2023-07-28T13:36:54;3.95;;;3.30;;
6135;SDS011;24008;42.664;23.372;2023-07-28T13:39:21;3.70;;;3.22;;
6135;SDS011;24008;42.664;23.372;2023-07-28T13:41:48;3.65;;;3.35;;
6135;SDS011;24008;42.664;23.372;2023-07-28T13:44:15;3.30;;;3.03;;
6135;SDS011;24008;42.664;23.372;2023-07-28T13:46:42;4.82;;;3.50;;
6135;SDS011;24008;42.664;23.372;2023-07-28T13:49:09;4.63;;;3.35;;
6135;SDS011;24008;42.664;23.372;2023-07-28T13:51:37;3.72;;;3.28;;
6135;SDS011;24008;42.664;23.372;2023-07-28T13:54:04;3.45;;;3.05;;
6135;SDS011;24008;42.664;23.372;2023-07-28T13:56:31;4.20;;;3.40;;
6135;SDS011;24008;42.664;23.372;2023-07-28T13:58:58;3.13;;;2.92;;
6135;SDS011;24008;42.664;23.372;2023-07-28T14:01:25;3.72;;;3.42;;
6135;SDS011;24008;42.664;23.372;2023-07-28T14:03:51;3.95;;;3.45;;
6135;SDS011;24008;42.664;23.372;2023-07-28T14:06:18;3.80;;;3.20;;
6135;SDS011;24008;42.664;23.372;2023-07-28T14:08:47;3.47;;;3.17;;
6135;SDS011;24008;42.664;23.372;2023-07-28T14:11:14;5.82;;;4.07;;
6135;SDS011;24008;42.664;23.372;2023-07-28T14:13:40;5.70;;;4.00;;
6135;SDS011;24008;42.664;23.372;2023-07-28T14:16:07;3.53;;;3.20;;
6135;SDS011;24008;42.664;23.372;2023-07-28T14:18:36;3.97;;;3.22;;
6135;SDS011;24008;42.664;23.372;2023-07-28T14:21:03;4.72;;;3.85;;
6135;SDS011;24008;42.664;23.372;2023-07-28T14:23:29;4.53;;;3.40;;
6135;SDS011;24008;42.664;23.372;2023-07-28T14:25:57;3.70;;;3.40;;
6135;SDS011;24008;42.664;23.372;2023-07-28T14:28:24;3.97;;;3.30;;
6135;SDS011;24008;42.664;23.372;2023-07-28T14:30:51;4.50;;;3.10;;
6135;SDS011;24008;42.664;23.372;2023-07-28T14:33:18;4.63;;;3.30;;
6135;SDS011;24008;42.664;23.372;2023-07-28T14:35:45;4.82;;;3.35;;
6135;SDS011;24008;42.664;23.372;2023-07-28T14:38:13;4.75;;;3.55;;
6135;SDS011;24008;42.664;23.372;2023-07-28T14:40:40;5.93;;;3.40;;
6135;SDS011;24008;42.664;23.372;2023-07-28T14:43:08;3.80;;;3.40;;
6135;SDS011;24008;42.664;23.372;2023-07-28T14:45:35;3.55;;;3.25;;
6135;SDS011;24008;42.664;23.372;2023-07-28T14:48:01;6.82;;;3.85;;
6135;SDS011;24008;42.664;23.372;2023-07-28T14:50:29;4.30;;;3.28;;